sensor_id;sensor_type;location;lat;lon;timestamp;temperature;humidity
12370;DHT22;6249;52.128;9.986;2023-04-01T00:02:38;10.60;99.90
12370;DHT22;6249;52.128;9.986;2023-04-01T00:06:00;10.60;99.90
12370;DHT22;6249;52.128;9.986;2023-04-01T00:09:22;10.80;99.90
12370;DHT22;6249;52.128;9.986;2023-04-01T00:12:43;10.70;99.90
12370;DHT22;6249;52.128;9.986;2023-04-01T00:16:04;10.70;99.90
12370;DHT22;6249;52.128;9.986;2023-04-01T00:19:25;10.80;99.90
12370;DHT22;6249;52.128;9.986;2023-04-01T00:22:45;10.80;99.90
12370;DHT22;6249;52.128;9.986;2023-04-01T00:26:06;10.90;99.90
12370;DHT22;6249;52.128;9.986;2023-04-01T00:29:29;10.90;99.90
12370;DHT22;6249;52.128;9.986;2023-04-01T00:32:54;10.90;99.90
12370;DHT22;6249;52.128;9.986;2023-04-01T00:36:19;10.90;99.90
12370;DHT22;6249;52.128;9.986;2023-04-01T00:39:44;10.90;99.90
12370;DHT22;6249;52.128;9.986;2023-04-01T00:43:18;10.90;99.90
12370;DHT22;6249;52.128;9.986;2023-04-01T00:46:46;10.90;99.90
12370;DHT22;6249;52.128;9.986;2023-04-01T00:50:07;11.00;99.90
12370;DHT22;6249;52.128;9.986;2023-04-01T00:53:32;11.00;99.90
12370;DHT22;6249;52.128;9.986;2023-04-01T00:56:58;10.90;99.90
12370;DHT22;6249;52.128;9.986;2023-04-01T01:00:20;11.00;99.90
12370;DHT22;6249;52.128;9.986;2023-04-01T01:03:41;11.00;99.90
12370;DHT22;6249;52.128;9.986;2023-04-01T01:07:30;10.80;99.90
12370;DHT22;6249;52.128;9.986;2023-04-01T01:10:54;10.70;99.90
12370;DHT22;6249;52.128;9.986;2023-04-01T01:32:10;10.50;99.90
12370;DHT22;6249;52.128;9.986;2023-04-01T01:35:38;10.40;99.90
12370;DHT22;6249;52.128;9.986;2023-04-01T01:39:02;10.30;99.90
12370;DHT22;6249;52.128;9.986;2023-04-01T01:42:28;10.30;99.90
12370;DHT22;6249;52.128;9.986;2023-04-01T01:45:58;10.40;99.90
12370;DHT22;6249;52.128;9.986;2023-04-01T01:49:20;10.40;99.90
12370;DHT22;6249;52.128;9.986;2023-04-01T01:52:41;10.40;99.90
12370;DHT22;6249;52.128;9.986;2023-04-01T01:56:02;10.40;99.90
12370;DHT22;6249;52.128;9.986;2023-04-01T01:59:24;10.30;99.90
12370;DHT22;6249;52.128;9.986;2023-04-01T02:02:50;10.30;99.90
12370;DHT22;6249;52.128;9.986;2023-04-01T02:06:15;10.40;99.90
12370;DHT22;6249;52.128;9.986;2023-04-01T02:09:37;11.80;99.90
12370;DHT22;6249;52.128;9.986;2023-04-01T02:13:00;10.30;99.90
12370;DHT22;6249;52.128;9.986;2023-04-01T02:16:26;10.50;99.90
12370;DHT22;6249;52.128;9.986;2023-04-01T02:20:01;10.50;99.90
12370;DHT22;6249;52.128;9.986;2023-04-01T02:23:28;10.40;99.90
12370;DHT22;6249;52.128;9.986;2023-04-01T02:26:51;10.50;99.90
12370;DHT22;6249;52.128;9.986;2023-04-01T02:30:18;10.30;99.90
12370;DHT22;6249;52.128;9.986;2023-04-01T02:33:42;10.30;99.90
12370;DHT22;6249;52.128;9.986;2023-04-01T02:37:02;10.70;99.90
12370;DHT22;6249;52.128;9.986;2023-04-01T02:40:23;10.30;99.90
12370;DHT22;6249;52.128;9.986;2023-04-01T02:43:44;10.30;99.90
12370;DHT22;6249;52.128;9.986;2023-04-01T02:47:05;10.40;99.90
12370;DHT22;6249;52.128;9.986;2023-04-01T02:50:25;10.20;99.90
12370;DHT22;6249;52.128;9.986;2023-04-01T02:53:48;10.20;99.90
12370;DHT22;6249;52.128;9.986;2023-04-01T02:57:11;10.50;99.90
12370;DHT22;6249;52.128;9.986;2023-04-01T03:00:31;10.70;99.90
12370;DHT22;6249;52.128;9.986;2023-04-01T03:03:52;10.20;99.90
12370;DHT22;6249;52.128;9.986;2023-04-01T03:07:13;10.20;99.90
12370;DHT22;6249;52.128;9.986;2023-04-01T03:10:35;10.10;99.90
12370;DHT22;6249;52.128;9.986;2023-04-01T03:13:58;10.10;99.90
12370;DHT22;6249;52.128;9.986;2023-04-01T03:17:21;10.00;99.90
12370;DHT22;6249;52.128;9.986;2023-04-01T03:20:42;10.00;99.90
12370;DHT22;6249;52.128;9.986;2023-04-01T03:24:05;10.10;99.90
12370;DHT22;6249;52.128;9.986;2023-04-01T03:27:26;10.20;99.90
12370;DHT22;6249;52.128;9.986;2023-04-01T03:30:47;10.10;99.90
12370;DHT22;6249;52.128;9.986;2023-04-01T03:34:07;10.10;99.90
12370;DHT22;6249;52.128;9.986;2023-04-01T03:37:28;10.00;99.90
12370;DHT22;6249;52.128;9.986;2023-04-01T03:40:49;10.00;99.90
12370;DHT22;6249;52.128;9.986;2023-04-01T03:44:12;10.00;99.90
12370;DHT22;6249;52.128;9.986;2023-04-01T03:47:33;10.00;99.90
12370;DHT22;6249;52.128;9.986;2023-04-01T03:50:54;10.10;99.90
12370;DHT22;6249;52.128;9.986;2023-04-01T03:54:14;10.30;99.90
12370;DHT22;6249;52.128;9.986;2023-04-01T03:57:35;10.00;99.90
12370;DHT22;6249;52.128;9.986;2023-04-01T04:00:56;10.00;99.90
12370;DHT22;6249;52.128;9.986;2023-04-01T04:04:16;10.00;99.90
12370;DHT22;6249;52.128;9.986;2023-04-01T04:07:37;10.60;99.90
12370;DHT22;6249;52.128;9.986;2023-04-01T04:10:58;10.10;99.90
12370;DHT22;6249;52.128;9.986;2023-04-01T04:14:20;10.20;99.90
12370;DHT22;6249;52.128;9.986;2023-04-01T04:17:44;10.20;99.90
12370;DHT22;6249;52.128;9.986;2023-04-01T04:21:05;10.20;99.90
12370;DHT22;6249;52.128;9.986;2023-04-01T04:24:28;10.20;99.90
12370;DHT22;6249;52.128;9.986;2023-04-01T04:27:51;10.10;99.90
12370;DHT22;6249;52.128;9.986;2023-04-01T04:31:19;10.20;99.90
12370;DHT22;6249;52.128;9.986;2023-04-01T04:34:40;10.00;99.90
12370;DHT22;6249;52.128;9.986;2023-04-01T04:38:02;10.00;99.90
12370;DHT22;6249;52.128;9.986;2023-04-01T04:41:26;10.10;99.90
12370;DHT22;6249;52.128;9.986;2023-04-01T04:44:46;10.10;99.90
12370;DHT22;6249;52.128;9.986;2023-04-01T04:48:12;9.90;99.90
12370;DHT22;6249;52.128;9.986;2023-04-01T04:51:40;9.80;99.90
12370;DHT22;6249;52.128;9.986;2023-04-01T04:55:03;9.90;99.90
12370;DHT22;6249;52.128;9.986;2023-04-01T04:58:24;9.80;99.90
12370;DHT22;6249;52.128;9.986;2023-04-01T05:01:45;9.90;99.90
12370;DHT22;6249;52.128;9.986;2023-04-01T05:05:05;9.90;99.90
12370;DHT22;6249;52.128;9.986;2023-04-01T05:08:26;9.80;99.90
12370;DHT22;6249;52.128;9.986;2023-04-01T05:11:47;9.80;99.90
12370;DHT22;6249;52.128;9.986;2023-04-01T05:15:08;10.40;99.90
12370;DHT22;6249;52.128;9.986;2023-04-01T05:18:31;9.90;99.90
12370;DHT22;6249;52.128;9.986;2023-04-01T05:21:51;9.90;99.90
12370;DHT22;6249;52.128;9.986;2023-04-01T05:25:15;10.00;99.90
12370;DHT22;6249;52.128;9.986;2023-04-01T05:28:36;9.90;99.90
12370;DHT22;6249;52.128;9.986;2023-04-01T05:31:56;10.00;99.90
12370;DHT22;6249;52.128;9.986;2023-04-01T05:35:19;10.00;99.90
12370;DHT22;6249;52.128;9.986;2023-04-01T05:38:40;10.30;99.90
12370;DHT22;6249;52.128;9.986;2023-04-01T05:42:02;10.10;99.90
12370;DHT22;6249;52.128;9.986;2023-04-01T05:45:23;10.00;99.90
12370;DHT22;6249;52.128;9.986;2023-04-01T05:48:43;10.00;99.90
12370;DHT22;6249;52.128;9.986;2023-04-01T05:52:04;10.00;99.90
12370;DHT22;6249;52.128;9.986;2023-04-01T05:55:27;10.00;99.90
12370;DHT22;6249;52.128;9.986;2023-04-01T05:58:53;10.10;99.90
12370;DHT22;6249;52.128;9.986;2023-04-01T06:02:16;10.10;99.90
12370;DHT22;6249;52.128;9.986;2023-04-01T06:05:43;10.20;99.90
12370;DHT22;6249;52.128;9.986;2023-04-01T06:09:26;10.20;99.90
12370;DHT22;6249;52.128;9.986;2023-04-01T06:28:00;10.60;99.90
12370;DHT22;6249;52.128;9.986;2023-04-01T06:31:36;10.60;99.90
12370;DHT22;6249;52.128;9.986;2023-04-01T06:35:19;10.60;99.90
12370;DHT22;6249;52.128;9.986;2023-04-01T06:53:53;10.70;99.90
12370;DHT22;6249;52.128;9.986;2023-04-01T06:57:28;10.70;99.90
12370;DHT22;6249;52.128;9.986;2023-04-01T07:01:03;10.70;99.90
12370;DHT22;6249;52.128;9.986;2023-04-01T07:04:33;10.70;99.90
12370;DHT22;6249;52.128;9.986;2023-04-01T07:07:57;10.70;99.90
12370;DHT22;6249;52.128;9.986;2023-04-01T07:11:26;10.80;99.90
12370;DHT22;6249;52.128;9.986;2023-04-01T07:14:53;10.80;99.90
12370;DHT22;6249;52.128;9.986;2023-04-01T07:18:23;10.80;99.90
12370;DHT22;6249;52.128;9.986;2023-04-01T07:22:01;11.00;99.90
12370;DHT22;6249;52.128;9.986;2023-04-01T07:25:39;11.00;99.90
12370;DHT22;6249;52.128;9.986;2023-04-01T07:29:02;11.00;99.90
12370;DHT22;6249;52.128;9.986;2023-04-01T07:43:44;11.10;99.90
12370;DHT22;6249;52.128;9.986;2023-04-01T07:58:22;11.50;99.90
12370;DHT22;6249;52.128;9.986;2023-04-01T08:05:41;11.50;99.90
12370;DHT22;6249;52.128;9.986;2023-04-01T08:12:42;11.70;99.90
12370;DHT22;6249;52.128;9.986;2023-04-01T08:23:19;12.10;99.90
12370;DHT22;6249;52.128;9.986;2023-04-01T08:26:46;12.20;99.90
12370;DHT22;6249;52.128;9.986;2023-04-01T08:30:24;12.50;99.90
12370;DHT22;6249;52.128;9.986;2023-04-01T08:33:47;12.70;99.90
12370;DHT22;6249;52.128;9.986;2023-04-01T08:37:15;12.80;99.90
12370;DHT22;6249;52.128;9.986;2023-04-01T08:40:53;12.80;99.90
12370;DHT22;6249;52.128;9.986;2023-04-01T08:52:25;13.10;99.90
12370;DHT22;6249;52.128;9.986;2023-04-01T08:56:01;13.00;99.90
12370;DHT22;6249;52.128;9.986;2023-04-01T09:07:12;13.00;99.90
12370;DHT22;6249;52.128;9.986;2023-04-01T09:14:38;12.90;99.90
12370;DHT22;6249;52.128;9.986;2023-04-01T09:25:58;12.90;99.90
12370;DHT22;6249;52.128;9.986;2023-04-01T09:40:24;13.00;99.90
12370;DHT22;6249;52.128;9.986;2023-04-01T09:51:53;12.90;99.90
12370;DHT22;6249;52.128;9.986;2023-04-01T10:07:37;12.50;99.90
12370;DHT22;6249;52.128;9.986;2023-04-01T10:21:55;12.50;99.90
12370;DHT22;6249;52.128;9.986;2023-04-01T10:40:33;13.10;99.90
12370;DHT22;6249;52.128;9.986;2023-04-01T10:47:48;13.10;99.90
12370;DHT22;6249;52.128;9.986;2023-04-01T11:02:53;13.50;99.90
12370;DHT22;6249;52.128;9.986;2023-04-01T11:06:44;13.70;99.90
12370;DHT22;6249;52.128;9.986;2023-04-01T11:33:03;14.40;99.90
12370;DHT22;6249;52.128;9.986;2023-04-01T11:36:34;14.30;99.90
12370;DHT22;6249;52.128;9.986;2023-04-01T11:47:39;14.70;99.90
12370;DHT22;6249;52.128;9.986;2023-04-01T11:58:36;15.70;99.90
12370;DHT22;6249;52.128;9.986;2023-04-01T12:09:21;16.20;99.90
12370;DHT22;6249;52.128;9.986;2023-04-01T12:19:58;16.00;99.90
12370;DHT22;6249;52.128;9.986;2023-04-01T12:30:47;15.70;99.90
12370;DHT22;6249;52.128;9.986;2023-04-01T12:41:48;16.50;99.90
12370;DHT22;6249;52.128;9.986;2023-04-01T12:49:01;17.50;99.90
12370;DHT22;6249;52.128;9.986;2023-04-01T12:55:54;17.70;99.90
12370;DHT22;6249;52.128;9.986;2023-04-01T13:07:26;17.40;99.90
12370;DHT22;6249;52.128;9.986;2023-04-01T13:22:00;16.40;99.90
12370;DHT22;6249;52.128;9.986;2023-04-01T13:29:43;15.70;99.90
12370;DHT22;6249;52.128;9.986;2023-04-01T13:33:16;15.70;99.90
12370;DHT22;6249;52.128;9.986;2023-04-01T14:02:49;14.50;99.90
12370;DHT22;6249;52.128;9.986;2023-04-01T14:14:05;13.90;99.90
12370;DHT22;6249;52.128;9.986;2023-04-01T14:21:38;13.70;99.90
12370;DHT22;6249;52.128;9.986;2023-04-01T14:35:55;13.60;99.90
12370;DHT22;6249;52.128;9.986;2023-04-01T14:50:49;14.00;99.90
12370;DHT22;6249;52.128;9.986;2023-04-01T14:57:33;14.20;99.90
12370;DHT22;6249;52.128;9.986;2023-04-01T15:04:32;14.20;99.90
12370;DHT22;6249;52.128;9.986;2023-04-01T15:08:09;14.30;99.90
12370;DHT22;6249;52.128;9.986;2023-04-01T15:59:24;12.30;99.90
12370;DHT22;6249;52.128;9.986;2023-04-01T16:02:48;12.10;99.90
12370;DHT22;6249;52.128;9.986;2023-04-01T16:06:31;12.00;99.90
12370;DHT22;6249;52.128;9.986;2023-04-01T16:32:34;11.50;99.90
12370;DHT22;6249;52.128;9.986;2023-04-01T16:39:30;11.30;99.90
12370;DHT22;6249;52.128;9.986;2023-04-01T16:43:28;11.20;99.90
12370;DHT22;6249;52.128;9.986;2023-04-01T16:46:55;11.00;99.90
12370;DHT22;6249;52.128;9.986;2023-04-01T16:50:21;10.90;99.90
12370;DHT22;6249;52.128;9.986;2023-04-01T16:53:49;10.80;99.90
12370;DHT22;6249;52.128;9.986;2023-04-01T17:00:49;10.80;99.90
12370;DHT22;6249;52.128;9.986;2023-04-01T17:15:26;10.40;99.90
12370;DHT22;6249;52.128;9.986;2023-04-01T17:22:33;10.00;99.90
12370;DHT22;6249;52.128;9.986;2023-04-01T17:44:49;9.90;99.90
12370;DHT22;6249;52.128;9.986;2023-04-01T17:48:30;9.70;99.90
12370;DHT22;6249;52.128;9.986;2023-04-01T17:52:24;9.70;99.90
12370;DHT22;6249;52.128;9.986;2023-04-01T17:55:59;9.70;99.90
12370;DHT22;6249;52.128;9.986;2023-04-01T17:59:37;9.70;99.90
12370;DHT22;6249;52.128;9.986;2023-04-01T18:10:38;9.50;99.90
12370;DHT22;6249;52.128;9.986;2023-04-01T18:21:27;9.30;99.90
12370;DHT22;6249;52.128;9.986;2023-04-01T18:25:04;9.50;99.90
12370;DHT22;6249;52.128;9.986;2023-04-01T18:28:38;9.40;99.90
12370;DHT22;6249;52.128;9.986;2023-04-01T18:36:09;9.10;99.90
12370;DHT22;6249;52.128;9.986;2023-04-01T18:39:40;9.10;99.90
12370;DHT22;6249;52.128;9.986;2023-04-01T18:54:47;8.90;99.90
12370;DHT22;6249;52.128;9.986;2023-04-01T19:01:40;8.80;99.90
12370;DHT22;6249;52.128;9.986;2023-04-01T19:05:34;8.80;99.90
12370;DHT22;6249;52.128;9.986;2023-04-01T19:09:17;9.00;99.90
12370;DHT22;6249;52.128;9.986;2023-04-01T19:13:25;8.80;99.90
12370;DHT22;6249;52.128;9.986;2023-04-01T19:17:32;8.70;99.90
12370;DHT22;6249;52.128;9.986;2023-04-01T19:21:12;8.70;99.90
12370;DHT22;6249;52.128;9.986;2023-04-01T20:06:58;8.20;99.90
12370;DHT22;6249;52.128;9.986;2023-04-01T20:14:18;8.00;99.90
12370;DHT22;6249;52.128;9.986;2023-04-01T20:17:45;8.00;99.90
12370;DHT22;6249;52.128;9.986;2023-04-01T20:24:53;7.90;99.90
12370;DHT22;6249;52.128;9.986;2023-04-01T20:31:43;7.90;99.90
12370;DHT22;6249;52.128;9.986;2023-04-01T20:35:30;7.70;99.90
12370;DHT22;6249;52.128;9.986;2023-04-01T20:47:00;7.60;99.90
12370;DHT22;6249;52.128;9.986;2023-04-01T20:57:28;7.50;99.90
12370;DHT22;6249;52.128;9.986;2023-04-01T21:00:55;7.40;99.90
12370;DHT22;6249;52.128;9.986;2023-04-01T21:04:27;7.60;99.90
12370;DHT22;6249;52.128;9.986;2023-04-01T21:26:16;7.30;99.90
12370;DHT22;6249;52.128;9.986;2023-04-01T21:41:17;7.10;99.90
12370;DHT22;6249;52.128;9.986;2023-04-01T22:02:54;6.90;99.90
12370;DHT22;6249;52.128;9.986;2023-04-01T22:06:32;6.80;99.90
12370;DHT22;6249;52.128;9.986;2023-04-01T22:13:39;6.70;99.90
12370;DHT22;6249;52.128;9.986;2023-04-01T22:20:43;6.70;99.90
12370;DHT22;6249;52.128;9.986;2023-04-01T22:24:30;6.50;99.90
12370;DHT22;6249;52.128;9.986;2023-04-01T22:28:00;6.60;99.90
12370;DHT22;6249;52.128;9.986;2023-04-01T22:31:28;6.60;99.90
12370;DHT22;6249;52.128;9.986;2023-04-01T22:35:02;6.50;99.90
12370;DHT22;6249;52.128;9.986;2023-04-01T22:45:55;6.30;99.90
12370;DHT22;6249;52.128;9.986;2023-04-01T22:49:29;6.20;99.90
12370;DHT22;6249;52.128;9.986;2023-04-01T22:56:40;6.20;99.90
12370;DHT22;6249;52.128;9.986;2023-04-01T23:03:38;6.20;99.90
12370;DHT22;6249;52.128;9.986;2023-04-01T23:07:05;6.00;99.90
12370;DHT22;6249;52.128;9.986;2023-04-01T23:10:58;6.00;99.90
12370;DHT22;6249;52.128;9.986;2023-04-01T23:24:45;6.10;99.90
12370;DHT22;6249;52.128;9.986;2023-04-01T23:31:38;6.00;99.90
12370;DHT22;6249;52.128;9.986;2023-04-01T23:35:00;6.00;99.90
12370;DHT22;6249;52.128;9.986;2023-04-01T23:38:25;6.00;99.90
12370;DHT22;6249;52.128;9.986;2023-04-01T23:41:46;5.90;99.90
12370;DHT22;6249;52.128;9.986;2023-04-01T23:45:15;6.00;99.90
12370;DHT22;6249;52.128;9.986;2023-04-01T23:48:40;6.00;99.90
12370;DHT22;6249;52.128;9.986;2023-04-01T23:52:26;6.00;99.90
12370;DHT22;6249;52.128;9.986;2023-04-01T23:55:47;6.00;99.90
12370;DHT22;6249;52.128;9.986;2023-04-01T23:59:32;5.80;99.90
